Terminal Aerodrome Forecast
Issued by NWS Charleston, WV

Current Version | Previous Version | Graphics & Text | Print | Product List | Glossary On
Versions: 1 2 3 4 5 6 7 8 9 10 11 12 13 14 15 16 17 18 19 20 21 22 23 24 25
000
FTUS41 KRLX 222015 AAA
TAFCRW
TAF AMD
KCRW 222015Z 2220/2318 19008G16KT P6SM BKN100
     FM230100 16008G16KT P6SM VCSH BKN080 WS020/19045KT
     FM230700 20010G20KT 5SM -SHRA OVC030
     FM230900 24008KT P6SM BKN060
     FM231500 24015G25KT P6SM BKN040=

USA.gov is the U.S. government's official web portal to all federal, state and local government web resources and services.